In Rescue
 
Open Full Screen Window  High Contrast Mode
Wind Gusting 15 knots
10
May 20, 2019 3:49 PM EDT
Weather Information
Wind Direction
  310 °
Wind Speed
  10 kt (12 mph)
Wind Gust
  15 kt (17 mph)
Altimeter
30.11 in
Visibility
10 SM
Temperature
09° C
48° F
Dewpoint
04° C
39° F
Humidity
71%
Sky Condition
Overcast @ 2,900 ft
Scattered @ 2,100 ft
MVFR

METAR KLWA 201949Z AUTO 31010G15KT 10SM SCT021 OVC029 09/04 A3011 RMK AO2 T00860041

FAA Disclaimer: The data displayed is for advisory purposes only and is not to be used for flight planning or operations.